M/V Jesse B Gunstream Jr — WDB6583 — position and weather

sailwx.info

Track history (hours):
 
Tides and Currents Weather Stations Pressure Air Temp Water Temp Dewpoint Dewpoint Depression Visibility Wind Speed Wind Dir Waves Ship Positions

M/V Jesse B Gunstream Jr

Owner: Higman Barge Lines, Inc., ORANGE, TX. More information available from US FCC via Universal Licensing System and Coast Guard Vessel Documentation Center.

Last reported at 2017-Sep-20 00:31 UTC. Time now 2017-Sep-20 00:27 UTC.
Position N 30°08' W 093°19'.

; draft 3.2 m.

Type: Ship (hazmat cat A). MMSI: 366926990.

Date/timePositionNaut miles runAvg speedWind from/ knotsBaromVisibWave heightAir tempDewpointWater temp
2017-Sep-20 00:31N 30°08' W 093°19'0 0.0
2017-Sep-20 00:00N 30°08' W 093°19'0 0.0
2017-Sep-19 23:31N 30°08' W 093°19'1 2.8
2017-Sep-19 23:00N 30°07' W 093°20'2 4.2
2017-Sep-19 22:31N 30°05' W 093°20'0 0.0
2017-Sep-19 22:00N 30°05' W 093°20'0 0.0
2017-Sep-19 21:30N 30°05' W 093°20'0 0.0
2017-Sep-19 21:01N 30°05' W 093°20'0 0.5
2017-Sep-19 20:30N 30°05' W 093°20'1 1.6
2017-Sep-19 20:00N 30°04' W 093°20'1 2.5
2017-Sep-19 19:30N 30°04' W 093°22'2 3.0
2017-Sep-19 19:00N 30°04' W 093°23'3 7.0
2017-Sep-19 18:30N 30°04' W 093°27'4 8.1
2017-Sep-19 18:00N 30°04' W 093°32'4 7.8
2017-Sep-19 17:31N 30°04' W 093°36'74 3.1
2017-Sep-18 17:36N 29°33' W 094°54'1 7.0
2017-Sep-18 17:30N 29°33' W 094°55'4 7.1
2017-Sep-18 17:01N 29°36' W 094°57'4 7.4
2017-Sep-18 16:31N 29°40' W 094°58'3 6.9
2017-Sep-18 16:00N 29°42' W 095°01'  
2017-Sep-11 10:59N 29°42' W 095°01'7 5.6
2017-Sep-11 09:43N 29°36' W 094°57'2 6.3
2017-Sep-11 09:26N 29°35' W 094°56'3 6.4
2017-Sep-11 09:00N 29°32' W 094°54'  
Track history (hours):
 
Tides and Currents Weather Stations Pressure Air Temp Water Temp Dewpoint Dewpoint Depression Visibility Wind Speed Wind Dir Waves Ship Positions

M/V Jesse B Gunstream Jr

Owner: Higman Barge Lines, Inc., ORANGE, TX. More information available from US FCC via Universal Licensing System and Coast Guard Vessel Documentation Center.

Last reported at 2017-Sep-20 00:31 UTC. Time now 2017-Sep-20 00:27 UTC.
Position N 30°08' W 093°19'.

; draft 3.2 m.

Type: Ship (hazmat cat A). MMSI: 366926990.

Date/timePositionNaut miles runAvg speedWind from/ knotsBaromVisibWave heightAir tempDewpointWater temp
2017-Sep-20 00:31N 30°08' W 093°19'0 0.0
2017-Sep-20 00:00N 30°08' W 093°19'0 0.0
2017-Sep-19 23:31N 30°08' W 093°19'1 2.8
2017-Sep-19 23:00N 30°07' W 093°20'2 4.2
2017-Sep-19 22:31N 30°05' W 093°20'0 0.0
2017-Sep-19 22:00N 30°05' W 093°20'0 0.0
2017-Sep-19 21:30N 30°05' W 093°20'0 0.0
2017-Sep-19 21:01N 30°05' W 093°20'0 0.5
2017-Sep-19 20:30N 30°05' W 093°20'1 1.6
2017-Sep-19 20:00N 30°04' W 093°20'1 2.5
2017-Sep-19 19:30N 30°04' W 093°22'2 3.0
2017-Sep-19 19:00N 30°04' W 093°23'3 7.0
2017-Sep-19 18:30N 30°04' W 093°27'4 8.1
2017-Sep-19 18:00N 30°04' W 093°32'4 7.8
2017-Sep-19 17:31N 30°04' W 093°36'74 3.1
2017-Sep-18 17:36N 29°33' W 094°54'1 7.0
2017-Sep-18 17:30N 29°33' W 094°55'4 7.1
2017-Sep-18 17:01N 29°36' W 094°57'4 7.4
2017-Sep-18 16:31N 29°40' W 094°58'3 6.9
2017-Sep-18 16:00N 29°42' W 095°01'  
2017-Sep-11 10:59N 29°42' W 095°01'7 5.6
2017-Sep-11 09:43N 29°36' W 094°57'2 6.3
2017-Sep-11 09:26N 29°35' W 094°56'3 6.4
2017-Sep-11 09:00N 29°32' W 094°54'  

Dump ship's entire track history